createdAt,value
2023-03-16T03:30:16.908Z,0.00
2023-03-16T03:31:17.943Z,0.00
2023-03-16T03:32:17.879Z,0.00
2023-03-16T03:33:17.881Z,0.00
2023-03-16T03:34:17.849Z,0.00
2023-03-16T03:35:17.834Z,0.00
2023-03-16T03:36:17.825Z,0.00
2023-03-16T03:37:17.813Z,0.00
2023-03-16T03:38:17.828Z,0.00
2023-03-16T03:39:17.802Z,0.00
2023-03-16T03:40:17.804Z,0.00
2023-03-16T03:41:17.770Z,0.00
2023-03-16T03:42:17.766Z,0.00
2023-03-16T03:43:17.772Z,0.00
2023-03-16T03:44:17.749Z,0.00
2023-03-16T03:45:17.734Z,0.00
2023-03-16T03:46:17.844Z,0.00
2023-03-16T03:47:17.712Z,0.00
2023-03-16T03:48:17.719Z,0.00
2023-03-16T03:49:17.701Z,0.00
2023-03-16T03:50:17.679Z,0.00
2023-03-16T03:51:17.696Z,0.00
2023-03-16T03:52:17.664Z,0.00
2023-03-16T03:53:17.646Z,0.00
2023-03-16T03:54:17.661Z,0.00
2023-03-16T03:55:17.627Z,0.00
2023-03-16T03:56:17.624Z,0.00
2023-03-16T03:57:17.606Z,0.00
2023-03-16T03:58:17.606Z,0.00
2023-03-16T03:59:17.610Z,0.00
2023-03-16T04:00:17.577Z,0.00
2023-03-16T04:01:17.568Z,0.00
2023-03-16T04:02:17.660Z,0.00
2023-03-16T04:03:17.741Z,0.00
2023-03-16T04:04:17.561Z,0.00
2023-03-16T04:05:17.524Z,0.00
2023-03-16T04:06:17.515Z,0.00
2023-03-16T04:07:17.517Z,0.00
2023-03-16T04:08:17.519Z,0.00
2023-03-16T04:09:17.489Z,0.00
2023-03-16T04:10:17.493Z,0.00
2023-03-16T04:11:17.464Z,0.00
2023-03-16T04:12:17.450Z,0.00
2023-03-16T04:13:17.445Z,0.00
2023-03-16T04:14:17.446Z,0.00
2023-03-16T04:15:17.424Z,0.00
2023-03-16T04:16:17.476Z,0.00
2023-03-16T04:17:17.410Z,0.00
2023-03-16T04:18:17.392Z,0.00
2023-03-16T04:19:17.395Z,0.00
2023-03-16T04:20:17.380Z,0.00
2023-03-16T04:21:17.366Z,0.00
2023-03-16T04:22:17.365Z,0.00
2023-03-16T04:23:17.359Z,0.00
2023-03-16T04:24:17.346Z,0.00
2023-03-16T04:25:17.320Z,0.00
2023-03-16T04:26:17.323Z,0.00
2023-03-16T04:27:17.300Z,0.00
2023-03-16T04:28:17.290Z,0.00
2023-03-16T04:29:17.310Z,0.00
2023-03-16T04:30:17.275Z,0.00
2023-03-16T04:31:17.321Z,0.00
2023-03-16T04:32:17.247Z,0.00
2023-03-16T04:33:17.238Z,0.00
2023-03-16T04:34:17.250Z,0.00
2023-03-16T04:35:17.211Z,0.00
2023-03-16T04:36:17.213Z,0.00
2023-03-16T04:37:17.193Z,0.00
2023-03-16T04:38:17.186Z,0.00
2023-03-16T04:39:17.183Z,0.00
2023-03-16T04:40:17.165Z,0.00
2023-03-16T04:41:17.155Z,0.00
2023-03-16T04:42:17.154Z,0.00
2023-03-16T04:43:17.131Z,0.00
2023-03-16T04:44:17.138Z,0.00
2023-03-16T04:45:17.117Z,0.00
2023-03-16T04:46:17.217Z,0.00
2023-03-16T04:47:17.090Z,0.00
2023-03-16T04:48:17.113Z,0.00
2023-03-16T04:49:17.082Z,0.00
2023-03-16T04:50:17.066Z,0.00
2023-03-16T04:51:17.102Z,0.00
2023-03-16T04:52:17.101Z,0.00
2023-03-16T04:53:17.043Z,0.00
2023-03-16T04:54:17.057Z,0.00
2023-03-16T04:55:17.010Z,0.00
2023-03-16T04:56:17.013Z,0.00
2023-03-16T04:57:16.985Z,0.00
2023-03-16T04:58:16.984Z,0.00
2023-03-16T04:59:16.984Z,0.00
2023-03-16T05:00:16.964Z,0.00
2023-03-16T05:01:16.916Z,1.00
2023-03-16T05:02:16.960Z,0.00
2023-03-16T05:03:16.922Z,0.00
2023-03-16T05:04:19.606Z,0.00
2023-03-16T05:05:16.931Z,1.00
2023-03-16T05:06:16.845Z,1.00
2023-03-16T05:07:16.837Z,1.00
2023-03-16T05:08:16.881Z,0.00
2023-03-16T05:09:16.878Z,0.00
2023-03-16T05:10:16.857Z,0.00
2023-03-16T05:11:16.808Z,2.00
2023-03-16T05:12:16.782Z,1.00
2023-03-16T05:13:16.784Z,1.00
2023-03-16T05:14:16.826Z,0.00
2023-03-16T05:15:16.826Z,0.00
2023-03-16T05:16:16.867Z,1.00
2023-03-16T05:17:16.729Z,1.00
2023-03-16T05:18:16.728Z,3.00
2023-03-16T05:19:16.716Z,1.00
2023-03-16T05:20:16.835Z,1.00
2023-03-16T05:21:16.696Z,1.00
2023-03-16T05:22:16.683Z,2.00
2023-03-16T05:23:16.683Z,3.00
2023-03-16T05:24:16.671Z,4.00
2023-03-16T05:25:16.672Z,5.00
2023-03-16T05:26:16.644Z,5.00
2023-03-16T05:27:16.644Z,7.00
2023-03-16T05:28:16.612Z,7.00
2023-03-16T05:29:16.639Z,10.00
2023-03-16T05:30:16.605Z,12.00
2023-03-16T05:31:16.707Z,15.00
2023-03-16T05:32:16.573Z,18.00
2023-03-16T05:33:16.590Z,23.00
2023-03-16T05:34:16.561Z,28.00
2023-03-16T05:35:16.555Z,33.00
2023-03-16T05:36:16.537Z,37.00
2023-03-16T05:37:16.534Z,42.00
2023-03-16T05:38:16.512Z,47.00
2023-03-16T05:39:16.526Z,53.00
2023-03-16T05:40:16.488Z,60.00
2023-03-16T05:41:16.482Z,64.00
2023-03-16T05:42:16.478Z,67.00
2023-03-16T05:43:16.462Z,69.00
2023-03-16T05:44:16.468Z,71.00
2023-03-16T05:45:16.436Z,71.00
2023-03-16T05:46:17.902Z,72.00
2023-03-16T05:47:16.426Z,72.00
2023-03-16T05:48:16.427Z,81.00
2023-03-16T05:49:16.423Z,81.00
2023-03-16T05:50:16.388Z,90.00
2023-03-16T05:51:16.384Z,109.00
2023-03-16T05:52:16.362Z,134.00
2023-03-16T05:53:16.399Z,172.00
2023-03-16T05:54:16.359Z,203.00
2023-03-16T05:55:16.336Z,220.00
2023-03-16T05:56:16.321Z,227.00
2023-03-16T05:57:16.312Z,237.00
2023-03-16T05:58:16.301Z,244.00
2023-03-16T05:59:16.301Z,259.00
2023-03-16T06:00:16.361Z,270.00
2023-03-16T06:01:16.276Z,289.00
2023-03-16T06:02:16.251Z,300.00
2023-03-16T06:03:16.311Z,317.00
2023-03-16T06:04:16.297Z,337.00
2023-03-16T06:05:16.235Z,364.00
2023-03-16T06:06:16.213Z,391.00
2023-03-16T06:07:16.209Z,426.00
2023-03-16T06:08:16.201Z,445.00
2023-03-16T06:09:16.193Z,459.00
2023-03-16T06:10:16.170Z,496.00
2023-03-16T06:11:16.162Z,511.00
2023-03-16T06:12:16.150Z,532.00
2023-03-16T06:13:16.144Z,556.00
2023-03-16T06:14:16.143Z,591.00
2023-03-16T06:15:16.124Z,636.00
2023-03-16T06:16:16.194Z,682.00
2023-03-16T06:17:16.103Z,721.00
2023-03-16T06:18:16.091Z,756.00
2023-03-16T06:19:16.090Z,788.00
2023-03-16T06:20:16.065Z,831.00
2023-03-16T06:21:16.062Z,869.00
2023-03-16T06:22:16.083Z,916.00
2023-03-16T06:23:16.041Z,959.00
2023-03-16T06:24:16.036Z,1003.00
2023-03-16T06:25:16.016Z,1056.00
2023-03-16T06:26:16.010Z,1104.00
2023-03-16T06:27:16.008Z,1165.00
2023-03-16T06:28:15.988Z,1210.00
2023-03-16T06:29:15.984Z,1270.00
2023-03-16T06:30:15.979Z,1321.00
2023-03-16T06:31:15.983Z,1351.00
2023-03-16T06:32:15.943Z,1377.00
2023-03-16T06:33:15.936Z,1391.00
2023-03-16T06:34:15.939Z,1383.00
2023-03-16T06:35:15.930Z,1399.00
2023-03-16T06:36:15.931Z,1400.00
2023-03-16T06:37:15.890Z,1414.00
2023-03-16T06:38:15.878Z,1452.00
2023-03-16T06:39:15.900Z,1505.00
2023-03-16T06:40:15.859Z,1572.00
2023-03-16T06:41:15.856Z,1648.00
2023-03-16T06:42:15.844Z,1729.00
2023-03-16T06:43:15.831Z,1816.00
2023-03-16T06:44:15.836Z,1881.00
2023-03-16T06:45:15.809Z,1741.00
2023-03-16T06:46:15.844Z,2257.00
2023-03-16T06:47:15.789Z,2123.00
2023-03-16T06:48:15.785Z,2002.00
2023-03-16T06:49:15.775Z,1976.00
2023-03-16T06:50:15.773Z,1928.00
2023-03-16T06:51:16.926Z,1831.00
2023-03-16T06:52:15.724Z,1757.00
2023-03-16T06:53:15.726Z,1951.00
2023-03-16T06:54:15.720Z,2130.00
2023-03-16T06:55:15.709Z,1870.00
2023-03-16T06:56:15.697Z,1718.00
2023-03-16T06:57:15.688Z,1686.00
2023-03-16T06:58:15.666Z,1645.00
2023-03-16T06:59:15.703Z,1619.00
2023-03-16T07:00:15.694Z,1532.00
2023-03-16T07:01:15.718Z,2050.00
2023-03-16T07:02:15.652Z,1889.00
2023-03-16T07:03:15.619Z,1926.00
2023-03-16T07:04:15.660Z,1946.00
2023-03-16T07:05:15.804Z,1995.00
2023-03-16T07:06:15.577Z,2046.00
2023-03-16T07:07:15.584Z,2062.00
2023-03-16T07:08:15.577Z,2072.00
2023-03-16T07:09:15.590Z,2067.00
2023-03-16T07:10:15.554Z,2079.00
2023-03-16T07:11:15.536Z,2062.00
2023-03-16T07:12:15.534Z,2035.00
2023-03-16T07:13:15.516Z,1986.00
2023-03-16T07:14:15.511Z,1986.00
2023-03-16T07:15:15.483Z,1975.00
2023-03-16T07:16:15.579Z,1987.00
2023-03-16T07:17:15.460Z,2010.00
2023-03-16T07:18:15.443Z,2103.00
2023-03-16T07:19:15.461Z,2164.00
2023-03-16T07:20:15.435Z,2126.00
2023-03-16T07:21:15.453Z,2111.00
2023-03-16T07:22:15.403Z,2125.00
2023-03-16T07:23:15.402Z,2187.00
2023-03-16T07:24:15.399Z,2245.00
2023-03-16T07:25:15.392Z,2363.00
2023-03-16T07:26:15.379Z,2463.00
2023-03-16T07:27:15.447Z,2569.00
2023-03-16T07:28:15.347Z,2684.00
2023-03-16T07:29:15.365Z,2750.00
2023-03-16T07:30:15.321Z,2837.00
2023-03-16T07:31:15.362Z,2952.00
2023-03-16T07:32:15.296Z,3033.00
2023-03-16T07:33:15.287Z,3090.00
2023-03-16T07:34:15.287Z,3209.00
2023-03-16T07:35:15.264Z,3254.00
2023-03-16T07:36:15.333Z,3289.00
2023-03-16T07:37:16.179Z,3331.00
2023-03-16T07:38:15.251Z,3380.00
2023-03-16T07:39:15.236Z,3412.00
2023-03-16T07:40:15.245Z,3456.00
2023-03-16T07:41:15.300Z,3497.00
2023-03-16T07:42:15.198Z,3538.00
2023-03-16T07:43:15.188Z,3612.00
2023-03-16T07:44:15.203Z,3695.00
2023-03-16T07:45:15.174Z,3756.00
2023-03-16T07:46:15.236Z,3831.00
2023-03-16T07:47:15.150Z,3934.00
2023-03-16T07:48:15.123Z,4098.00
2023-03-16T07:49:15.148Z,4344.00
2023-03-16T07:50:15.115Z,4428.00
2023-03-16T07:51:15.111Z,4661.00
2023-03-16T07:52:15.092Z,4712.00
2023-03-16T07:53:15.081Z,5140.00
2023-03-16T07:54:15.064Z,5893.00
2023-03-16T07:55:15.057Z,5583.00
2023-03-16T07:56:15.035Z,5550.00
2023-03-16T07:57:15.071Z,5464.00
2023-03-16T07:58:15.018Z,5572.00
2023-03-16T07:59:15.032Z,5688.00
2023-03-16T08:00:14.991Z,6779.00
2023-03-16T08:01:14.988Z,6893.00
2023-03-16T08:02:15.015Z,6831.00
2023-03-16T08:03:15.024Z,8646.00
2023-03-16T08:04:14.967Z,7833.00
2023-03-16T08:05:14.949Z,6086.00
2023-03-16T08:06:14.931Z,6316.00
2023-03-16T08:07:14.925Z,5587.00
2023-03-16T08:08:14.907Z,5708.00
2023-03-16T08:09:14.911Z,5881.00
2023-03-16T08:10:14.884Z,5956.00
2023-03-16T08:11:14.882Z,6018.00
2023-03-16T08:12:14.881Z,6749.00
2023-03-16T08:13:15.057Z,7512.00
2023-03-16T08:14:14.883Z,7106.00
2023-03-16T08:15:14.884Z,6995.00
2023-03-16T08:16:14.889Z,6470.00
2023-03-16T08:17:14.857Z,6788.00
2023-03-16T08:18:15.482Z,6789.00
2023-03-16T08:19:14.856Z,7371.00
2023-03-16T08:20:14.840Z,6576.00
2023-03-16T08:21:14.800Z,5782.00
2023-03-16T08:22:14.778Z,5355.00
2023-03-16T08:23:14.751Z,5490.00
2023-03-16T08:24:14.761Z,5432.00
2023-03-16T08:25:14.765Z,5351.00
2023-03-16T08:26:14.768Z,5245.00
2023-03-16T08:27:14.842Z,5439.00
2023-03-16T08:28:14.777Z,5341.00
2023-03-16T08:29:14.728Z,5638.00
2023-03-16T08:30:14.697Z,6605.00
2023-03-16T08:31:14.902Z,7512.00
2023-03-16T08:32:14.705Z,7956.00
2023-03-16T08:33:14.658Z,7584.00
2023-03-16T08:34:14.666Z,6373.00
2023-03-16T08:35:14.639Z,8524.00
2023-03-16T08:36:14.646Z,7655.00
2023-03-16T08:37:14.620Z,7268.00
2023-03-16T08:38:14.596Z,7200.00
2023-03-16T08:39:14.597Z,7502.00
2023-03-16T08:40:14.687Z,8010.00
2023-03-16T08:41:14.568Z,7920.00
2023-03-16T08:42:14.643Z,7856.00
2023-03-16T08:43:14.560Z,7657.00
2023-03-16T08:44:14.579Z,8368.00
2023-03-16T08:45:14.600Z,7402.00
2023-03-16T08:46:14.527Z,6374.00
2023-03-16T08:47:14.508Z,7771.00
2023-03-16T08:48:14.493Z,6675.00
2023-03-16T08:49:14.498Z,5225.00
2023-03-16T08:50:14.469Z,8884.00
2023-03-16T08:51:14.496Z,6720.00
2023-03-16T08:52:14.538Z,10497.00
2023-03-16T08:53:14.458Z,10739.00
2023-03-16T08:54:14.459Z,13248.00
2023-03-16T08:55:15.206Z,12839.00
2023-03-16T08:56:14.452Z,10474.00
2023-03-16T08:57:14.394Z,9552.00
2023-03-16T08:58:14.373Z,10613.00
2023-03-16T08:59:27.265Z,12684.00
2023-03-16T09:00:14.361Z,11745.00
2023-03-16T09:01:14.341Z,11981.00
2023-03-16T09:02:14.628Z,11086.00
2023-03-16T09:03:14.585Z,10139.00
2023-03-16T09:04:14.392Z,9088.00
2023-03-16T09:05:14.333Z,10008.00
2023-03-16T09:06:14.357Z,10922.00
2023-03-16T09:07:14.348Z,9562.00
2023-03-16T09:08:14.289Z,10136.00
2023-03-16T09:09:14.431Z,8781.00
2023-03-16T09:10:14.317Z,8623.00
2023-03-16T09:11:14.412Z,8245.00
2023-03-16T09:12:14.221Z,7742.00
2023-03-16T09:13:14.235Z,7281.00
2023-03-16T09:14:14.231Z,7065.00
2023-03-16T09:15:14.257Z,6715.00
2023-03-16T09:16:14.251Z,6706.00
2023-03-16T09:17:14.190Z,7236.00
2023-03-16T09:18:14.227Z,7623.00
2023-03-16T09:19:14.194Z,7844.00
2023-03-16T09:20:34.743Z,8182.00
2023-03-16T09:21:14.142Z,7856.00
2023-03-16T09:22:14.121Z,7915.00
2023-03-16T09:23:14.148Z,7437.00
2023-03-16T09:24:14.163Z,8096.00
2023-03-16T09:25:14.137Z,6961.00
2023-03-16T09:26:14.280Z,6913.00
2023-03-16T09:27:14.263Z,6763.00
2023-03-16T09:28:14.084Z,6251.00
2023-03-16T09:29:14.072Z,5808.00
2023-03-16T09:30:14.043Z,5869.00
2023-03-16T09:31:14.149Z,6093.00
2023-03-16T09:32:14.027Z,6465.00
2023-03-16T09:33:14.016Z,6184.00
2023-03-16T09:34:14.861Z,6390.00
2023-03-16T09:35:13.991Z,8900.00
2023-03-16T09:36:14.001Z,9226.00
2023-03-16T09:37:14.024Z,6432.00
2023-03-16T09:38:14.957Z,13137.00
2023-03-16T09:39:13.961Z,15528.00
2023-03-16T09:40:13.961Z,16146.00
2023-03-16T09:41:13.932Z,13942.00
2023-03-16T09:42:13.933Z,16569.00
2023-03-16T09:43:13.906Z,15133.00
2023-03-16T09:44:41.220Z,13556.00
2023-03-16T09:45:13.895Z,14999.00
2023-03-16T09:46:30.432Z,22299.00
2023-03-16T09:47:13.881Z,27899.00
2023-03-16T09:48:13.862Z,75371.00
2023-03-16T09:49:13.907Z,76224.00
2023-03-16T09:50:13.899Z,76472.00
2023-03-16T09:56:42.740Z,76723.00
2023-03-16T09:56:49.444Z,66029.00
2023-03-16T09:57:49.557Z,22779.00
2023-03-16T09:59:04.017Z,20687.00
2023-03-16T10:00:09.466Z,16349.00
2023-03-16T10:00:47.741Z,17307.00
2023-03-16T10:01:47.699Z,17222.00
2023-03-16T10:02:47.692Z,19164.00
2023-03-16T10:03:47.684Z,17860.00
2023-03-16T10:04:47.666Z,12634.00
2023-03-16T10:05:47.628Z,12859.00
2023-03-16T10:06:47.612Z,13425.00
2023-03-16T10:07:47.587Z,11252.00
2023-03-16T10:08:49.510Z,13201.00
2023-03-16T10:09:47.609Z,13908.00
2023-03-16T10:10:47.573Z,11936.00
2023-03-16T10:11:47.564Z,11908.00
2023-03-16T10:12:47.548Z,11553.00
2023-03-16T10:13:47.533Z,11266.00
2023-03-16T10:14:47.577Z,11375.00
2023-03-16T10:15:47.614Z,12215.00
2023-03-16T10:16:47.562Z,12111.00
2023-03-16T10:17:49.242Z,11070.00
2023-03-16T10:18:47.536Z,10251.00
2023-03-16T10:19:47.483Z,10014.00
2023-03-16T10:20:47.470Z,9736.00
2023-03-16T10:21:47.486Z,9496.00
2023-03-16T10:22:47.616Z,8989.00
2023-03-16T10:23:49.542Z,8225.00
2023-03-16T10:24:47.517Z,7682.00
2023-03-16T10:26:02.173Z,7253.00
2023-03-16T10:26:47.390Z,6964.00
2023-03-16T10:27:47.374Z,6856.00
2023-03-16T10:28:47.360Z,6796.00
2023-03-16T10:29:47.356Z,6583.00
2023-03-16T10:30:47.357Z,6496.00
2023-03-16T10:31:47.470Z,6352.00
2023-03-16T10:32:47.389Z,5997.00
2023-03-16T10:33:47.306Z,5836.00
2023-03-16T10:34:47.318Z,5683.00
2023-03-16T10:35:47.280Z,5597.00
2023-03-16T10:36:47.329Z,5480.00
2023-03-16T10:37:47.264Z,5398.00
2023-03-16T10:38:47.260Z,5457.00
2023-03-16T10:39:47.252Z,5536.00
2023-03-16T10:40:47.244Z,5664.00
2023-03-16T10:41:47.223Z,5808.00
2023-03-16T10:42:47.220Z,5938.00
2023-03-16T10:43:47.197Z,6032.00
2023-03-16T10:44:47.210Z,6367.00
2023-03-16T10:45:47.236Z,7073.00
2023-03-16T10:46:47.353Z,7727.00
2023-03-16T10:47:47.166Z,7421.00
2023-03-16T10:48:47.157Z,16569.00
2023-03-16T10:49:47.178Z,14580.00
2023-03-16T10:50:47.130Z,13014.00
2023-03-16T10:51:47.129Z,11361.00
2023-03-16T10:52:47.113Z,10889.00
2023-03-16T10:53:47.096Z,11025.00
2023-03-16T10:54:47.087Z,11200.00
2023-03-16T10:55:47.082Z,10133.00
2023-03-16T10:56:47.070Z,12404.00
2023-03-16T10:57:47.051Z,10243.00
2023-03-16T10:58:47.058Z,10264.00
2023-03-16T10:59:47.034Z,10941.00
2023-03-16T11:00:47.043Z,11020.00
2023-03-16T11:01:47.020Z,10645.00
2023-03-16T11:02:47.020Z,11184.00
2023-03-16T11:03:47.025Z,13287.00
2023-03-16T11:04:47.021Z,13832.00
2023-03-16T11:05:46.984Z,13251.00
2023-03-16T11:06:46.968Z,12952.00
2023-03-16T11:07:46.966Z,10944.00
2023-03-16T11:08:46.956Z,26126.00
2023-03-16T11:09:46.936Z,23154.00
2023-03-16T11:10:55.647Z,17958.00
2023-03-16T11:11:46.948Z,14760.00
2023-03-16T11:12:46.921Z,13801.00
2023-03-16T11:13:46.912Z,15536.00
2023-03-16T11:14:46.891Z,15329.00
2023-03-16T11:15:46.874Z,14794.00
2023-03-16T11:16:46.985Z,13242.00
2023-03-16T11:17:46.847Z,15662.00
2023-03-16T11:18:46.854Z,16544.00
2023-03-16T11:19:48.570Z,26184.00
2023-03-16T11:20:46.825Z,22454.00
2023-03-16T11:21:46.807Z,17201.00
2023-03-16T11:22:46.792Z,25520.00
2023-03-16T11:23:46.809Z,29763.00
2023-03-16T11:24:46.783Z,23836.00
2023-03-16T11:25:46.766Z,25739.00
2023-03-16T11:26:48.334Z,24150.00
2023-03-16T11:27:46.745Z,23758.00
2023-03-16T11:28:46.737Z,21324.00
2023-03-16T11:29:46.714Z,15853.00
2023-03-16T11:30:46.753Z,16964.00
2023-03-16T11:31:46.708Z,12654.00
2023-03-16T11:32:46.713Z,8558.00
2023-03-16T11:33:46.694Z,78374.00
2023-03-16T11:34:46.676Z,72881.00
2023-03-16T11:35:58.002Z,68904.00
2023-03-16T11:36:46.695Z,22327.00
2023-03-16T11:37:46.644Z,81620.00
2023-03-16T11:38:46.644Z,77588.00
2023-03-16T11:39:46.615Z,81591.00
2023-03-16T11:40:46.618Z,75442.00
2023-03-16T11:41:46.614Z,73371.00
2023-03-16T11:42:46.607Z,73633.00
2023-03-16T11:43:46.564Z,75211.00
2023-03-16T11:44:48.281Z,75328.00
2023-03-16T11:45:46.587Z,74677.00
2023-03-16T11:46:46.635Z,72507.00
2023-03-16T11:47:46.561Z,74536.00
2023-03-16T11:48:46.517Z,77835.00
2023-03-16T11:49:46.539Z,78566.00
2023-03-16T11:50:46.520Z,79566.00
2023-03-16T11:51:46.492Z,79150.00
2023-03-16T11:52:46.484Z,80544.00
2023-03-16T11:53:46.457Z,78772.00
2023-03-16T11:54:46.445Z,74432.00
2023-03-16T11:55:46.447Z,72400.00
2023-03-16T11:56:46.442Z,77152.00
2023-03-16T11:57:46.445Z,77351.00
2023-03-16T11:58:46.438Z,77022.00
2023-03-16T11:59:55.318Z,79087.00
2023-03-16T12:00:46.398Z,72055.00
2023-03-16T12:01:58.180Z,73891.00
2023-03-16T12:02:46.694Z,74086.00
2023-03-16T12:03:46.355Z,76514.00
2023-03-16T12:04:46.359Z,72369.00
2023-03-16T12:05:46.542Z,74840.00
2023-03-16T12:06:46.321Z,73072.00
2023-03-16T12:07:46.308Z,74068.00
2023-03-16T12:08:46.306Z,74622.00
2023-03-16T12:09:46.283Z,77053.00
2023-03-16T12:10:46.295Z,77725.00
2023-03-16T12:11:46.409Z,79760.00
2023-03-16T12:12:46.278Z,80374.00
2023-03-16T12:13:46.308Z,78976.00
2023-03-16T12:14:46.230Z,78110.00
2023-03-16T12:15:46.305Z,79646.00
2023-03-16T12:16:49.507Z,79044.00
2023-03-16T12:17:46.197Z,78976.00
2023-03-16T12:18:46.183Z,79571.00
2023-03-16T12:19:46.173Z,80588.00
2023-03-16T12:20:46.173Z,78334.00
2023-03-16T12:21:46.152Z,78047.00
2023-03-16T12:22:46.147Z,76552.00
2023-03-16T12:23:46.125Z,75604.00
2023-03-16T12:24:46.151Z,75296.00
2023-03-16T12:25:46.138Z,75662.00
2023-03-16T12:26:46.104Z,76107.00
2023-03-16T12:27:46.093Z,76789.00
2023-03-16T12:28:46.122Z,76938.00
2023-03-16T12:29:46.063Z,78548.00
2023-03-16T12:30:46.071Z,74597.00
2023-03-16T12:31:46.082Z,71055.00
2023-03-16T12:32:46.092Z,34739.00
2023-03-16T12:33:46.054Z,32815.00
2023-03-16T12:34:46.013Z,30438.00
2023-03-16T12:35:46.065Z,28356.00
2023-03-16T12:36:45.999Z,23423.00
2023-03-16T12:37:45.995Z,26396.00
2023-03-16T12:38:45.981Z,26503.00
2023-03-16T12:39:45.965Z,32254.00
2023-03-16T12:40:45.968Z,22015.00
2023-03-16T12:41:45.953Z,16149.00
2023-03-16T12:42:45.964Z,12891.00
2023-03-16T12:43:45.969Z,19149.00
2023-03-16T12:44:45.914Z,15037.00
2023-03-16T12:45:45.923Z,11503.00
2023-03-16T12:46:47.847Z,9535.00
2023-03-16T12:47:45.877Z,8941.00
2023-03-16T12:48:45.888Z,9002.00
2023-03-16T12:49:45.850Z,8787.00
2023-03-16T12:50:45.874Z,8340.00
2023-03-16T12:51:45.834Z,8906.00
2023-03-16T12:52:45.820Z,8552.00
2023-03-16T12:53:45.802Z,8211.00
2023-03-16T12:54:45.808Z,7971.00
2023-03-16T12:55:45.817Z,7828.00
2023-03-16T12:56:45.784Z,7871.00
2023-03-16T12:57:45.757Z,8142.00
2023-03-16T12:58:45.787Z,8606.00
2023-03-16T12:59:45.766Z,8194.00
2023-03-16T13:00:45.822Z,7791.00
2023-03-16T13:01:45.734Z,6983.00
2023-03-16T13:02:45.720Z,7028.00
2023-03-16T13:03:45.730Z,9684.00
2023-03-16T13:04:45.778Z,10677.00
2023-03-16T13:05:45.710Z,9997.00
2023-03-16T13:06:45.676Z,12559.00
2023-03-16T13:07:45.653Z,13450.00
2023-03-16T13:08:45.672Z,12431.00
2023-03-16T13:09:45.634Z,9255.00
2023-03-16T13:10:45.653Z,8929.00
2023-03-16T13:11:45.639Z,8073.00
2023-03-16T13:12:45.608Z,8479.00
2023-03-16T13:13:45.612Z,7555.00
2023-03-16T13:14:45.586Z,8022.00
2023-03-16T13:15:45.587Z,8201.00
2023-03-16T13:16:45.745Z,8233.00
2023-03-16T13:17:45.601Z,8242.00
2023-03-16T13:18:45.542Z,8489.00
2023-03-16T13:19:45.530Z,8635.00
2023-03-16T13:20:45.528Z,9356.00
2023-03-16T13:21:45.551Z,9254.00
2023-03-16T13:22:45.495Z,9132.00
2023-03-16T13:23:45.483Z,9094.00
2023-03-16T13:24:45.477Z,8497.00
2023-03-16T13:25:45.593Z,7960.00
2023-03-16T13:26:45.458Z,8825.00
2023-03-16T13:27:45.432Z,10788.00
2023-03-16T13:28:45.446Z,11157.00
2023-03-16T13:29:45.436Z,10737.00
2023-03-16T13:30:45.474Z,12408.00
2023-03-16T13:31:45.458Z,14791.00
2023-03-16T13:32:45.451Z,14070.00
2023-03-16T13:33:45.369Z,12854.00
2023-03-16T13:34:45.376Z,11766.00
2023-03-16T13:35:45.471Z,11950.00
2023-03-16T13:36:45.424Z,12100.00
2023-03-16T13:37:45.340Z,11776.00
2023-03-16T13:38:45.340Z,11959.00
2023-03-16T13:39:45.317Z,10645.00
2023-03-16T13:40:45.317Z,11762.00
2023-03-16T13:41:45.314Z,13341.00
2023-03-16T13:42:45.298Z,13949.00
2023-03-16T13:43:45.269Z,13408.00
2023-03-16T13:44:45.267Z,12517.00
2023-03-16T13:45:45.281Z,12113.00
2023-03-16T13:46:45.265Z,18144.00
2023-03-16T13:47:45.264Z,23291.00
2023-03-16T13:48:45.235Z,24973.00
2023-03-16T13:49:45.217Z,74671.00
2023-03-16T13:50:45.208Z,74178.00
2023-03-16T13:51:45.184Z,74568.00
2023-03-16T13:52:45.173Z,72873.00
2023-03-16T13:53:45.157Z,73447.00
2023-03-16T13:54:45.180Z,71040.00
2023-03-16T13:55:45.145Z,34046.00
2023-03-16T13:56:45.202Z,29709.00
2023-03-16T13:57:45.140Z,33264.00
2023-03-16T13:58:45.112Z,32345.00
2023-03-16T13:59:45.103Z,28967.00
2023-03-16T14:00:45.130Z,35672.00
2023-03-16T14:01:45.089Z,28088.00
2023-03-16T14:02:45.106Z,32950.00
2023-03-16T14:03:45.051Z,27097.00
2023-03-16T14:04:45.042Z,30488.00
2023-03-16T14:05:45.044Z,27829.00
2023-03-16T14:06:45.020Z,31324.00
2023-03-16T14:07:45.038Z,32050.00
2023-03-16T14:08:44.993Z,34035.00
2023-03-16T14:09:44.993Z,26021.00
2023-03-16T14:10:44.988Z,72025.00
2023-03-16T14:11:44.977Z,71653.00
2023-03-16T14:12:44.951Z,68638.00
2023-03-16T14:13:44.957Z,30337.00
2023-03-16T14:14:44.931Z,12680.00
2023-03-16T14:15:44.983Z,23766.00
2023-03-16T14:16:44.917Z,7029.00
2023-03-16T14:17:44.940Z,23868.00
2023-03-16T14:18:44.942Z,26309.00
2023-03-16T14:19:44.890Z,28126.00
2023-03-16T14:20:44.888Z,23560.00
2023-03-16T14:21:44.864Z,17432.00
2023-03-16T14:22:44.862Z,5787.00
2023-03-16T14:23:44.853Z,29858.00
2023-03-16T14:24:44.834Z,24553.00
2023-03-16T14:25:44.831Z,31857.00
2023-03-16T14:26:44.814Z,24718.00
2023-03-16T14:27:44.804Z,18481.00
2023-03-16T14:28:44.788Z,22303.00
2023-03-16T14:29:44.785Z,21444.00
2023-03-16T14:30:44.859Z,28307.00
2023-03-16T14:31:44.798Z,23654.00
2023-03-16T14:32:44.766Z,15631.00
2023-03-16T14:33:44.734Z,21491.00
2023-03-16T14:34:44.743Z,23053.00
2023-03-16T14:35:44.835Z,19174.00
2023-03-16T14:36:44.697Z,20866.00
2023-03-16T14:37:44.695Z,21030.00
2023-03-16T14:38:44.679Z,20026.00
2023-03-16T14:39:44.686Z,25936.00
2023-03-16T14:40:44.729Z,21332.00
2023-03-16T14:41:44.657Z,20577.00
2023-03-16T14:42:44.634Z,18831.00
2023-03-16T14:43:44.643Z,20404.00
2023-03-16T14:44:44.631Z,19769.00
2023-03-16T14:45:44.649Z,21142.00
2023-03-16T14:46:44.605Z,20990.00
2023-03-16T14:47:44.597Z,18287.00
2023-03-16T14:48:44.567Z,20192.00
2023-03-16T14:49:44.570Z,19899.00
2023-03-16T14:50:44.595Z,17829.00
2023-03-16T14:51:44.539Z,16660.00
2023-03-16T14:52:44.547Z,25528.00
2023-03-16T14:53:44.600Z,15511.00
2023-03-16T14:54:44.501Z,11422.00
2023-03-16T14:55:44.512Z,13759.00
2023-03-16T14:56:44.503Z,20213.00
2023-03-16T14:57:44.515Z,10971.00
2023-03-16T14:58:44.474Z,15944.00
2023-03-16T14:59:44.484Z,14718.00
2023-03-16T15:00:52.762Z,15137.00
2023-03-16T15:01:44.517Z,10353.00
2023-03-16T15:02:44.461Z,15113.00
2023-03-16T15:03:44.407Z,14904.00
2023-03-16T15:04:44.400Z,13709.00
2023-03-16T15:05:44.428Z,9575.00
2023-03-16T15:06:44.384Z,11134.00
2023-03-16T15:07:44.416Z,11057.00
2023-03-16T15:08:44.421Z,9750.00
2023-03-16T15:09:44.352Z,9493.00
2023-03-16T15:10:44.343Z,9350.00
2023-03-16T15:11:44.341Z,7392.00
2023-03-16T15:12:44.323Z,8436.00
2023-03-16T15:13:46.868Z,9637.00
2023-03-16T15:14:44.305Z,6553.00
2023-03-16T15:15:44.326Z,5098.00
2023-03-16T15:16:44.301Z,7657.00
2023-03-16T15:17:44.268Z,4950.00
2023-03-16T15:18:44.266Z,5486.00
2023-03-16T15:19:44.257Z,5692.00
2023-03-16T15:20:44.223Z,5998.00
2023-03-16T15:21:44.243Z,5272.00
2023-03-16T15:22:44.204Z,5771.00
2023-03-16T15:23:44.212Z,3834.00
2023-03-16T15:24:44.286Z,6587.00
2023-03-16T15:25:44.177Z,6983.00
2023-03-16T15:26:44.174Z,7431.00
2023-03-16T15:27:44.158Z,7484.00
2023-03-16T15:28:44.145Z,6901.00
2023-03-16T15:29:44.144Z,6941.00
2023-03-16T15:30:44.117Z,7308.00
2023-03-16T15:31:44.174Z,8074.00
2023-03-16T15:32:44.122Z,8923.00
2023-03-16T15:33:44.110Z,8641.00
2023-03-16T15:34:44.071Z,8859.00
2023-03-16T15:35:44.169Z,8680.00
2023-03-16T15:36:44.073Z,8236.00
2023-03-16T15:37:44.042Z,10087.00
2023-03-16T15:38:44.030Z,10246.00
2023-03-16T15:39:44.043Z,11760.00
2023-03-16T15:40:44.125Z,8174.00
2023-03-16T15:41:47.807Z,7159.00
2023-03-16T15:42:46.435Z,8094.00
2023-03-16T15:43:43.988Z,7952.00
2023-03-16T15:44:43.970Z,6942.00